עמוד ראשי
METAR-TAF:

METAR-TAF

שדות תעופה :

אסדת קידוח Norsk Hydro

Oseberg, נורבגיה

קו רוחב: 60-29-29N, קו אורך: 2-49-32E, גובה: 158מטר

תצפית מזג אוויר נוכחית

הדו"ח נערך לפני 42דקות, בשעה 23:20 UTC
רוח 9קשר מכיוון צפון
טמפרטורת 10 צלסיוס
לחות 87%
לחץ 1016 hPa
ראות 10 קילומטר או יותר
מעט עננים בגובה 1000רגל
עננים פזורים בגובה 1500רגל

METAR: ENOA 182320Z 35009KT 9999 FEW010 SCT015 10/08 Q1016 W///S3

זמן: 02:02 (00:02 UTC)

תחזית

הדו"ח נערך לפני 1 שעות ו 2דקות, בשעה 23:00 UTC
תחזית בתוקף מ 19 ב 00 UTC עד 19 ב 24 UTC
רוח 15קשר מכיוון צפון
ראות 10 קילומטר או יותר
עננים פזורים בגובה 1000רגל
עננים בינוניים בגובה 6000רגל
זמנית מ -
19 ב 00 UTC עד 19 ב 04 UTC
ראות: 4000מטר
עננים בינוניים בגובה 800רגל
טפטוף קל, אד
יעשה מ
19 ב 16 UTC עד 19 ב 18 UTC
רוח 25קשר מכיוון צפון

TAF: ENOA 182300Z 1900/1924 35015KT 9999 SCT010 BKN060 TEMPO 1900/1904 4000 -DZ BR BKN008 BECMG 1916/1918 01025KT

תצפיות ותחזיות מזג אוויר לגבי יותר מ- 4,000 שדות תעופה ברחבי העולם. דוחות METAR ו- TAF.

התחנות הזמינות מסומנות בנקודות צהובות ואדומות על גבי המפה.

העבר את העכבר לנקודה הצבעונית על מנת לראות את שם התחנה.

לאחר מכן, לחץ כדי לראות את תוכן ואת תחזיות מזג האוויר.

כדי לשנות את המפה: לחץ על הכפתורים הירוקים עם הפלוס השחור כדי להתקרב; על הכפתור הירוק עם המקף כדי להתרחק; או בחיצים הירוקים למפות סמוכות.


METAR-TAF: